nws-alerts: Checking more than four warning/county codes can delay the loading of your pages. You should use a cron job to get the data.

Nearby METAR Reports

 

KLBE - Latrobe/Westmorl, Pennsylvania, USA
Distance from station: SE 16mi, 26km
Updated: Tue, 24-Apr-2018 5:45pm EDT
Light rain, Overcast
Light rain, Overcast
 Wind from ENE
Wind: ENE 6 mph , 9 km/h
Temperature: 54°F , 12°C
Dew Point: 48°F , 9°C
Humidity: 82%
Barometer: 30.01 inHg , 1016.3 hPa
Summary: Light rain
Clouds: Overcast
Visibility: 5 miles , 8 km
Cloud details: Few Clouds 4000 ft
Mostly cloudy 4900 ft
Overcast 6500 ft
2018/04/24 21:45 KLBE 242145Z 06005KT 5SM -RA FEW040 BKN049 OVC065 12/09 A3001
KAGC - Pittsburgh/Alleg, Pennsylvania, USA
Distance from station: WSW 18mi, 30km
Updated: Tue, 24-Apr-2018 6:00pm EDT
Light rain, Mist, Overcast
Light rain, Mist, Overcast
 Wind from E
Wind: E 10 mph , 17 km/h
Temperature: 52°F , 11°C
Dew Point: 48°F , 9°C
Humidity: 88%
Barometer: 29.99 inHg , 1015.6 hPa
Summary: Light rain, Mist
Clouds: Overcast
Visibility: 6 miles , 10 km
Cloud details: Mostly cloudy 7000 ft
Overcast 8000 ft
2018/04/24 22:00 KAGC 242200Z 09009KT 6SM -RA BR BKN070 OVC080 11/09 A2999 RMK AO2 P0001 T01060094
 
KBTP - Butler Co., Pennsylvania, USA
Distance from station: NW 29mi, 47km
Updated: Tue, 24-Apr-2018 5:56pm EDT
Light rain, Overcast
Light rain, Overcast
 Wind from ESE
Wind: ESE 10 mph , 17 km/h
Temperature: 52°F , 11°C
Dew Point: 48°F , 9°C
Humidity: 88%
Barometer: 30.03 inHg , 1016.9 hPa
Summary: Light rain
Clouds: Overcast
Visibility: 10 miles , 16 km
Cloud details: Mostly cloudy 1000 ft
Overcast 2000 ft
2018/04/24 21:56 KBTP 242156Z AUTO 11009KT 10SM -RA BKN010 OVC020 11/09 A3003 RMK AO2 SLP176 P0004 T01060094
KIDI - Indiana/Stewart, Pennsylvania, USA
Distance from station: ENE 29mi, 47km
Updated: Tue, 24-Apr-2018 6:35pm EDT
Mist, Overcast
Mist, Overcast
 Wind from ESE
Wind: ESE 9 mph , 15 km/h, Gust: 17 mph , 28 km/h
Temperature: 52°F , 11°C
Dew Point: 50°F , 10°C
Humidity: 94%
Barometer: 30.06 inHg , 1017.9 hPa
Summary: Mist
Clouds: Overcast
Visibility: 4 miles , 6 km
Cloud details: Few Clouds 1700 ft
Partly cloudy 4600 ft
Overcast 6500 ft
2018/04/24 22:35 KIDI 242235Z AUTO 12008G15KT 4SM BR FEW017 SCT046 OVC065 11/10 A3006 RMK A01
 
KPIT - Pittsburgh, Pennsylvania, USA
Distance from station: W 36mi, 57km
Updated: Tue, 24-Apr-2018 5:51pm EDT
Light rain, Overcast
Light rain, Overcast
 Wind from E
Wind: E 7 mph , 11 km/h
Temperature: 52°F , 11°C
Dew Point: 52°F , 11°C
Humidity: 100%
Barometer: 29.99 inHg , 1015.6 hPa
Summary: Light rain
Clouds: Overcast
Visibility: 7 miles , 11 km
Cloud details: Partly cloudy 1100 ft
Mostly cloudy 6500 ft
Overcast 8000 ft
2018/04/24 21:51 KPIT 242151Z 10006KT 7SM -RA SCT011 BKN065 OVC080 11/11 A2999 RMK AO2 SLP165 P0005 T01110106
KJST - Johnstown, Pennsylvania, USA
Distance from station: ESE 41mi, 66km
Updated: Tue, 24-Apr-2018 5:54pm EDT
Light rain, Mist, Overcast
Light rain, Mist, Overcast
 Wind from ESE
Wind: ESE 8 mph , 13 km/h
Temperature: 48°F , 9°C
Wind Chill: 44°F , 7°C
Dew Point: 46°F , 8°C
Humidity: 94%
Barometer: 30.05 inHg , 1017.6 hPa
Summary: Light rain, Mist
Clouds: Overcast
Visibility: 6 miles , 10 km
Cloud details: Mostly cloudy 1000 ft
Overcast 1700 ft
2018/04/24 21:54 KJST 242154Z AUTO 11007KT 6SM -RA BR BKN010 OVC017 09/08 A3005 RMK AO2 SLP182 P0003 T00940078
 
KAFJ - Washington, Pennsylvania, USA
Distance from station: WSW 42mi, 68km
Updated: Tue, 24-Apr-2018 6:28pm EDT
Light rain, Overcast
Light rain, Overcast
 Wind from E
Wind: E 8 mph , 13 km/h
Temperature: 52°F , 11°C
Dew Point: 48°F , 9°C
Humidity: 88%
Barometer: 30.01 inHg , 1016.3 hPa
Summary: Light rain
Clouds: Overcast
Visibility: 7 miles , 11 km
Cloud details: Partly cloudy 1300 ft
Mostly cloudy 2800 ft
Overcast 8000 ft
2018/04/24 22:28 KAFJ 242228Z AUTO 08007KT 7SM -RA SCT013 BKN028 OVC080 11/09 A3001 RMK AO2 P0005
KBVI - Beaver Falls Arp, Pennsylvania, USA
Distance from station: WNW 48mi, 77km
Updated: Tue, 24-Apr-2018 5:47pm EDT
Drizzle, Overcast
Drizzle, Overcast
 Wind from ESE
Wind: ESE 7 mph , 11 km/h
Temperature: 50°F , 10°C
Wind Chill: 47°F , 8°C
Dew Point: 48°F , 9°C
Humidity: 94%
Barometer: 30.01 inHg , 1016.3 hPa
Summary: Drizzle
Clouds: Overcast
Visibility: 10 miles , 16 km
Cloud details: Overcast 900 ft
2018/04/24 21:47 KBVI 242147Z 11006KT 10SM DZ OVC009 10/09 A3001